Time;durP1;ratioP1;P1;durP2;ratioP2;P2;SDS_P1;SDS_P2;PMS_P1;PMS_P2;Temp;Humidity;BMP_temperature;BMP_pressure;BME280_temperature;BME280_humidity;BME280_pressure;Samples;Min_cycle;Max_cycle;Signal;HPM_P1;HPM_P2
2022/08/31 00:05:37;;;;;;;4.23;2.60;;;23.90;48.40;;;;;;5077428;28;20409;-66
2022/08/31 00:08:04;;;;;;;3.80;2.73;;;23.80;48.10;;;;;;5059484;28;20445;-66
2022/08/31 00:10:31;;;;;;;6.70;2.60;;;23.80;48.10;;;;;;5078177;28;20449;-66
2022/08/31 00:12:58;;;;;;;5.33;2.77;;;23.80;48.30;;;;;;5078257;28;20827;-66
2022/08/31 00:15:26;;;;;;;2.70;2.30;;;23.80;48.50;;;;;;5078508;28;20544;-67
2022/08/31 00:17:55;;;;;;;2.60;2.40;;;23.80;48.60;;;;;;5077710;28;20540;-67
2022/08/31 00:20:23;;;;;;;5.33;2.40;;;23.80;48.50;;;;;;5078049;28;20480;-67
2022/08/31 00:22:50;;;;;;;4.20;2.63;;;23.80;48.40;;;;;;5078502;28;20487;-67
2022/08/31 00:25:17;;;;;;;2.70;2.47;;;23.80;48.40;;;;;;5078263;28;20942;-67
2022/08/31 00:27:43;;;;;;;4.37;3.10;;;23.80;48.60;;;;;;5077876;28;20452;-66
2022/08/31 00:30:12;;;;;;;2.67;2.47;;;23.80;48.60;;;;;;5078967;28;20445;-66
2022/08/31 00:32:39;;;;;;;3.17;2.63;;;23.80;48.50;;;;;;5079765;28;20473;-66
2022/08/31 00:35:08;;;;;;;5.20;2.73;;;23.80;48.60;;;;;;5079848;28;20463;-66
2022/08/31 00:37:35;;;;;;;2.93;2.60;;;23.70;48.80;;;;;;5080164;28;20480;-66
2022/08/31 00:40:02;;;;;;;6.73;3.00;;;23.70;48.80;;;;;;5078275;28;20476;-66
2022/08/31 00:42:29;;;;;;;4.53;2.80;;;23.70;48.90;;;;;;5079080;28;21015;-66
2022/08/31 00:44:56;;;;;;;3.07;2.60;;;23.60;48.70;;;;;;5075912;28;20451;-66
2022/08/31 00:47:23;;;;;;;2.83;2.60;;;23.60;48.80;;;;;;5075089;28;20461;-66
2022/08/31 00:49:50;;;;;;;3.90;2.20;;;23.60;48.70;;;;;;5074979;28;20445;-66
2022/08/31 00:52:22;;;;;;;5.07;2.67;;;23.60;48.50;;;;;;5074680;28;21012;-67
2022/08/31 00:54:54;;;;;;;3.60;2.77;;;23.50;48.50;;;;;;5075035;28;20448;-67
2022/08/31 00:57:23;;;;;;;2.90;2.40;;;23.50;48.60;;;;;;5074980;28;20471;-67
2022/08/31 00:59:50;;;;;;;4.10;2.30;;;23.50;48.80;;;;;;5074857;28;20485;-67
2022/08/31 01:02:17;;;;;;;3.43;2.50;;;23.50;49.00;;;;;;5074633;28;20556;-66
2022/08/31 01:04:44;;;;;;;3.87;3.10;;;23.50;49.00;;;;;;5074616;28;20452;-66
2022/08/31 01:07:11;;;;;;;3.23;2.63;;;23.50;49.10;;;;;;5074818;28;20459;-66
2022/08/31 01:09:42;;;;;;;2.60;2.40;;;23.50;49.00;;;;;;5074703;28;20437;-66
2022/08/31 01:12:11;;;;;;;3.10;2.80;;;23.50;49.10;;;;;;5075097;28;20483;-66
2022/08/31 01:14:39;;;;;;;2.70;2.50;;;23.50;50.00;;;;;;5074846;28;20449;-66
2022/08/31 01:17:07;;;;;;;2.97;2.77;;;23.40;50.80;;;;;;5056798;28;20961;-66
2022/08/31 01:19:37;;;;;;;3.40;3.10;;;23.40;51.20;;;;;;5074495;28;20491;-65
2022/08/31 01:22:11;;;;;;;4.27;3.40;;;23.40;51.80;;;;;;5074446;28;20475;-65
2022/08/31 01:24:41;;;;;;;4.23;3.23;;;23.30;52.30;;;;;;5074253;28;20453;-65
2022/08/31 01:27:09;;;;;;;3.20;3.00;;;23.30;52.70;;;;;;5074610;28;20436;-66
2022/08/31 01:29:36;;;;;;;4.17;3.20;;;23.20;53.20;;;;;;5074016;28;20960;-66
2022/08/31 01:32:04;;;;;;;5.43;3.23;;;23.20;53.40;;;;;;5074291;28;20488;-65
2022/08/31 01:34:31;;;;;;;5.03;3.73;;;23.10;53.70;;;;;;5074067;28;20454;-65
2022/08/31 01:36:58;;;;;;;3.33;3.00;;;23.10;54.30;;;;;;5074400;28;20453;-66
2022/08/31 01:39:25;;;;;;;3.73;3.20;;;23.00;54.50;;;;;;5074337;28;20495;-66
2022/08/31 01:41:53;;;;;;;4.30;3.37;;;22.90;54.40;;;;;;5074155;28;20508;-65
2022/08/31 01:44:23;;;;;;;3.30;3.00;;;22.90;54.70;;;;;;5074112;28;20823;-66
2022/08/31 01:46:50;;;;;;;4.43;3.50;;;22.90;55.30;;;;;;5074198;28;20445;-66
2022/08/31 01:49:20;;;;;;;4.37;3.43;;;22.80;55.30;;;;;;5074366;28;20445;-66
2022/08/31 01:51:48;;;;;;;4.37;3.93;;;22.80;55.50;;;;;;5073775;28;20942;-66
2022/08/31 01:54:15;;;;;;;3.47;3.17;;;22.70;55.90;;;;;;5073578;28;20460;-67
2022/08/31 01:56:44;;;;;;;4.57;3.50;;;22.60;56.40;;;;;;5074035;28;20498;-66
2022/08/31 01:59:14;;;;;;;4.60;3.40;;;22.50;55.90;;;;;;5074175;28;20504;-66
2022/08/31 02:01:44;;;;;;;4.20;3.80;;;22.50;56.10;;;;;;5073676;28;20455;-66
2022/08/31 02:04:13;;;;;;;4.27;3.87;;;22.50;56.60;;;;;;5073801;28;20450;-66
2022/08/31 02:06:41;;;;;;;4.37;4.00;;;22.40;56.80;;;;;;5073885;28;20456;-66
2022/08/31 02:09:08;;;;;;;5.33;4.20;;;22.40;56.90;;;;;;5073711;28;20445;-67
2022/08/31 02:11:36;;;;;;;3.50;3.03;;;22.30;57.00;;;;;;5073575;28;20444;-66
2022/08/31 02:14:03;;;;;;;4.43;3.83;;;22.30;57.30;;;;;;5073235;28;20477;-66
2022/08/31 02:16:32;;;;;;;4.07;3.77;;;22.30;57.70;;;;;;5073719;28;20451;-67
2022/08/31 02:18:59;;;;;;;6.60;3.90;;;22.30;57.70;;;;;;5073580;28;20547;-66
2022/08/31 02:21:26;;;;;;;3.20;3.00;;;22.30;57.90;;;;;;5073387;28;20452;-67
2022/08/31 02:23:53;;;;;;;4.17;2.63;;;22.30;58.00;;;;;;5073123;28;20480;-66
2022/08/31 02:26:21;;;;;;;4.73;3.50;;;22.30;58.10;;;;;;5073313;28;20949;-66
2022/08/31 02:28:48;;;;;;;8.10;4.70;;;22.30;58.30;;;;;;5073627;28;20451;-67
2022/08/31 02:31:15;;;;;;;4.97;3.60;;;22.30;58.20;;;;;;5073679;28;20444;-66
2022/08/31 02:33:43;;;;;;;4.60;3.60;;;22.30;58.20;;;;;;5073433;28;20487;-66
2022/08/31 02:36:10;;;;;;;5.43;3.70;;;22.30;58.50;;;;;;5073581;28;20445;-66
2022/08/31 02:38:38;;;;;;;3.83;3.50;;;22.30;58.10;;;;;;5073568;28;20445;-66
2022/08/31 02:41:06;;;;;;;4.13;3.73;;;22.30;58.00;;;;;;5072806;28;20494;-65
2022/08/31 02:43:33;;;;;;;5.83;3.43;;;22.30;58.10;;;;;;5073395;28;20844;-66
2022/08/31 02:46:00;;;;;;;3.43;3.13;;;22.30;58.00;;;;;;5073649;28;20459;-66
2022/08/31 02:48:26;;;;;;;4.13;3.47;;;22.30;58.20;;;;;;5073481;28;20467;-65
2022/08/31 02:50:54;;;;;;;4.63;4.10;;;22.30;58.20;;;;;;5073932;28;20449;-66
2022/08/31 02:53:23;;;;;;;4.30;3.90;;;22.20;58.20;;;;;;5073529;28;20473;-65
2022/08/31 02:55:50;;;;;;;4.13;3.40;;;22.20;58.50;;;;;;5073310;28;20457;-65
2022/08/31 02:58:18;;;;;;;4.50;4.00;;;22.20;58.60;;;;;;5073455;28;20457;-65
2022/08/31 03:00:46;;;;;;;5.10;3.97;;;22.10;58.80;;;;;;5073683;28;20571;-65
2022/08/31 03:03:14;;;;;;;3.97;3.67;;;22.10;59.10;;;;;;5073361;28;20469;-65
2022/08/31 03:05:40;;;;;;;6.10;3.70;;;22.10;59.40;;;;;;5073341;28;20449;-65
2022/08/31 03:08:09;;;;;;;4.40;4.00;;;22.10;59.80;;;;;;5073216;28;20453;-65
2022/08/31 03:10:36;;;;;;;4.00;3.70;;;22.10;60.10;;;;;;5073177;28;20452;-64
2022/08/31 03:13:03;;;;;;;4.70;3.50;;;22.10;60.30;;;;;;5073286;28;20476;-64
2022/08/31 03:15:30;;;;;;;4.67;3.50;;;22.00;60.60;;;;;;5073702;28;20453;-65
2022/08/31 03:17:57;;;;;;;4.23;3.83;;;22.00;60.80;;;;;;5073420;28;20449;-65
2022/08/31 03:20:25;;;;;;;4.17;3.80;;;22.00;61.50;;;;;;5073443;28;20487;-64
2022/08/31 03:22:53;;;;;;;7.50;3.93;;;22.00;62.20;;;;;;5073778;28;20483;-64
2022/08/31 03:25:22;;;;;;;4.33;3.73;;;22.00;62.50;;;;;;5074536;28;20849;-64
2022/08/31 03:27:49;;;;;;;7.20;4.70;;;22.00;62.90;;;;;;5074353;28;20532;-64
2022/08/31 03:30:20;;;;;;;8.57;4.10;;;21.90;63.50;;;;;;5073485;28;20492;-64
2022/08/31 03:32:47;;;;;;;5.70;4.63;;;21.90;64.50;;;;;;5073592;28;20985;-64
2022/08/31 03:35:16;;;;;;;6.87;4.80;;;21.80;65.10;;;;;;5073408;28;20818;-65
2022/08/31 03:37:44;;;;;;;5.70;4.07;;;21.80;65.70;;;;;;5073946;28;20453;-65
2022/08/31 03:40:10;;;;;;;5.57;4.13;;;21.80;66.30;;;;;;5073589;28;20495;-64
2022/08/31 03:42:39;;;;;;;5.93;3.97;;;21.70;66.70;;;;;;5073515;28;20480;-64
2022/08/31 03:45:07;;;;;;;4.97;4.47;;;21.70;66.90;;;;;;5073874;28;20456;-64
2022/08/31 03:47:34;;;;;;;5.83;4.47;;;21.70;66.90;;;;;;5073283;28;20449;-65
2022/08/31 03:50:02;;;;;;;5.13;3.97;;;21.70;67.20;;;;;;5073433;28;20442;-65
2022/08/31 03:52:31;;;;;;;6.43;4.20;;;21.70;67.50;;;;;;5074990;28;20465;-65
2022/08/31 03:54:57;;;;;;;4.80;4.37;;;21.60;68.10;;;;;;5076678;28;20803;-65
2022/08/31 03:57:24;;;;;;;3.90;3.60;;;21.60;68.60;;;;;;5076597;28;20456;-65
2022/08/31 03:59:54;;;;;;;6.97;3.90;;;21.50;69.30;;;;;;5076165;28;20488;-65
2022/08/31 04:02:22;;;;;;;5.13;4.50;;;21.50;69.70;;;;;;5076224;28;20473;-66
2022/08/31 04:04:50;;;;;;;6.60;4.60;;;21.50;69.80;;;;;;5076190;28;21045;-66
2022/08/31 04:07:18;;;;;;;5.33;4.83;;;21.40;70.10;;;;;;5076098;28;20453;-66
2022/08/31 04:09:45;;;;;;;5.07;4.67;;;21.40;70.40;;;;;;5076124;28;20453;-66
2022/08/31 04:12:12;;;;;;;5.10;4.63;;;21.40;70.60;;;;;;5076164;28;20481;-65
2022/08/31 04:14:38;;;;;;;5.27;4.77;;;21.40;70.90;;;;;;5075814;28;20445;-65
2022/08/31 04:17:10;;;;;;;5.80;5.13;;;21.40;71.20;;;;;;5075505;28;20457;-65
2022/08/31 04:19:36;;;;;;;6.03;5.10;;;21.40;71.50;;;;;;5075629;28;20941;-65
2022/08/31 04:22:03;;;;;;;5.47;4.97;;;21.30;71.70;;;;;;5075748;28;20500;-65
2022/08/31 04:24:31;;;;;;;5.17;4.70;;;21.30;71.90;;;;;;5075390;28;20464;-66
2022/08/31 04:26:57;;;;;;;5.47;4.97;;;21.30;72.10;;;;;;5076405;28;20453;-66
2022/08/31 04:29:24;;;;;;;8.20;4.43;;;21.20;72.40;;;;;;5075837;28;20475;-66
2022/08/31 04:31:51;;;;;;;4.97;4.47;;;21.20;72.40;;;;;;5075679;28;20453;-66
2022/08/31 04:34:19;;;;;;;5.50;5.00;;;21.20;72.60;;;;;;5075610;28;20823;-66
2022/08/31 04:36:46;;;;;;;5.00;4.57;;;21.20;73.00;;;;;;5075788;28;20459;-66
2022/08/31 04:39:14;;;;;;;5.97;5.43;;;21.20;73.10;;;;;;5075696;28;20460;-66
2022/08/31 04:41:41;;;;;;;4.80;4.33;;;21.20;73.40;;;;;;5075714;28;20488;-65
2022/08/31 04:44:10;;;;;;;5.37;4.97;;;21.10;73.20;;;;;;5076031;28;20451;-65
2022/08/31 04:46:38;;;;;;;6.13;5.50;;;21.10;73.20;;;;;;5075491;28;20461;-65
2022/08/31 04:49:08;;;;;;;5.93;5.43;;;21.20;73.50;;;;;;5075364;28;20451;-65
2022/08/31 04:51:38;;;;;;;6.00;5.00;;;21.10;73.80;;;;;;5075386;28;20504;-66
2022/08/31 04:54:08;;;;;;;5.60;5.20;;;21.10;74.10;;;;;;5075018;28;20821;-66
2022/08/31 04:56:38;;;;;;;8.20;5.37;;;21.10;74.20;;;;;;5075317;28;20798;-65
2022/08/31 04:59:07;;;;;;;5.93;5.13;;;21.10;74.80;;;;;;5075019;28;20933;-65
2022/08/31 05:01:36;;;;;;;5.37;4.87;;;21.10;75.20;;;;;;5075184;28;20492;-66
2022/08/31 05:04:04;;;;;;;6.57;5.00;;;21.10;75.40;;;;;;5074784;28;20476;-66
2022/08/31 05:06:33;;;;;;;5.07;4.67;;;21.10;75.60;;;;;;5075034;28;20433;-66
2022/08/31 05:09:05;;;;;;;4.80;4.40;;;21.10;75.70;;;;;;5074721;28;20912;-66
2022/08/31 05:11:31;;;;;;;6.00;5.20;;;21.10;75.60;;;;;;5074551;28;20929;-66
2022/08/31 05:14:00;;;;;;;7.13;5.60;;;21.10;75.60;;;;;;5074570;28;20476;-66
2022/08/31 05:16:29;;;;;;;4.40;4.00;;;21.00;75.40;;;;;;5074713;28;20448;-66
2022/08/31 05:18:57;;;;;;;5.20;4.80;;;21.00;75.70;;;;;;5074724;28;20449;-66
2022/08/31 05:21:27;;;;;;;5.27;4.50;;;21.00;75.80;;;;;;5074577;28;20508;-66
2022/08/31 05:23:55;;;;;;;7.33;4.60;;;21.00;75.80;;;;;;5074533;28;20552;-66
2022/08/31 05:26:26;;;;;;;5.93;4.53;;;21.00;75.50;;;;;;5074628;28;20457;-66
2022/08/31 05:28:54;;;;;;;5.27;4.13;;;21.00;75.60;;;;;;5074782;28;20441;-67
2022/08/31 05:31:22;;;;;;;5.00;4.57;;;21.00;75.60;;;;;;5074650;28;20456;-65
2022/08/31 05:33:49;;;;;;;4.80;4.40;;;20.90;75.50;;;;;;5074251;28;20847;-65
2022/08/31 05:36:16;;;;;;;5.10;4.60;;;21.00;75.80;;;;;;5074610;28;20451;-65
2022/08/31 05:38:44;;;;;;;4.93;4.53;;;20.90;75.80;;;;;;5074570;28;20440;-65
2022/08/31 05:41:11;;;;;;;4.80;4.40;;;21.00;75.90;;;;;;5074388;28;20484;-67
2022/08/31 05:43:39;;;;;;;4.77;4.37;;;20.90;75.90;;;;;;5074281;28;20838;-67
2022/08/31 05:46:07;;;;;;;3.97;3.60;;;20.90;76.00;;;;;;5074033;28;20448;-67
2022/08/31 05:48:35;;;;;;;4.10;3.80;;;20.90;76.10;;;;;;5074081;28;20456;-67
2022/08/31 05:51:03;;;;;;;4.70;3.70;;;20.90;76.30;;;;;;5074008;28;20817;-68
2022/08/31 05:53:30;;;;;;;4.23;3.80;;;20.90;76.40;;;;;;5073687;28;20993;-68
2022/08/31 05:56:01;;;;;;;3.63;3.33;;;20.90;76.40;;;;;;5073953;28;20445;-69
2022/08/31 05:58:30;;;;;;;4.47;4.07;;;20.90;76.30;;;;;;5073782;28;20451;-68
2022/08/31 06:00:58;;;;;;;4.20;3.80;;;20.90;76.30;;;;;;5073699;28;20472;-69
2022/08/31 06:03:24;;;;;;;4.30;3.87;;;20.90;76.30;;;;;;5073826;28;20465;-69
2022/08/31 06:05:52;;;;;;;4.20;3.80;;;20.90;76.50;;;;;;5073929;28;20456;-69
2022/08/31 06:08:19;;;;;;;4.73;4.23;;;20.90;76.90;;;;;;5073709;28;20405;-69
2022/08/31 06:10:47;;;;;;;4.50;4.10;;;20.90;77.10;;;;;;5073800;28;20456;-69
2022/08/31 06:13:15;;;;;;;4.70;4.20;;;20.90;77.20;;;;;;5074381;28;20561;-69
2022/08/31 06:15:42;;;;;;;4.70;3.63;;;20.90;77.60;;;;;;5072777;28;20437;-69
2022/08/31 06:18:10;;;;;;;4.90;3.83;;;21.00;77.70;;;;;;5073618;28;20464;-68
2022/08/31 06:20:38;;;;;;;4.60;4.20;;;21.00;77.70;;;;;;5073501;28;20469;-68
2022/08/31 06:23:05;;;;;;;4.40;4.03;;;21.00;77.70;;;;;;5073505;28;20534;-69
2022/08/31 06:25:32;;;;;;;4.37;4.07;;;21.00;77.80;;;;;;5073660;28;20495;-68
2022/08/31 06:28:00;;;;;;;7.37;4.40;;;21.00;77.70;;;;;;5073750;28;20437;-68
2022/08/31 06:30:27;;;;;;;4.20;3.30;;;21.10;77.80;;;;;;5073694;28;20433;-68
2022/08/31 06:32:55;;;;;;;3.90;3.60;;;21.10;77.70;;;;;;5074278;28;21006;-68
2022/08/31 06:35:23;;;;;;;3.47;2.97;;;21.10;77.70;;;;;;5073428;28;20433;-68
2022/08/31 06:37:51;;;;;;;4.97;3.60;;;21.10;77.90;;;;;;5075022;28;20444;-69
2022/08/31 06:40:18;;;;;;;3.67;3.10;;;21.10;77.80;;;;;;5075262;28;20506;-69
2022/08/31 06:42:45;;;;;;;3.60;3.17;;;21.20;77.90;;;;;;5076127;28;20461;-69
2022/08/31 06:45:12;;;;;;;4.33;3.13;;;21.20;77.80;;;;;;5075318;28;20452;-69
2022/08/31 06:47:39;;;;;;;3.43;2.83;;;21.20;77.60;;;;;;5073647;28;20451;-69
2022/08/31 06:50:07;;;;;;;3.90;2.43;;;21.30;77.60;;;;;;5074059;28;20445;-69
2022/08/31 06:52:36;;;;;;;2.23;2.13;;;21.30;76.80;;;;;;5073968;28;20465;-69
2022/08/31 06:55:03;;;;;;;3.70;2.70;;;21.40;76.70;;;;;;5073278;28;20453;-69
2022/08/31 06:57:30;;;;;;;3.93;2.20;;;21.50;76.40;;;;;;5072797;28;20452;-69
2022/08/31 06:59:57;;;;;;;3.50;3.20;;;21.50;76.20;;;;;;5073470;28;20449;-69
2022/08/31 07:02:23;;;;;;;3.67;2.97;;;21.60;75.10;;;;;;5073864;28;20487;-68
2022/08/31 07:04:50;;;;;;;8.33;3.13;;;21.70;74.90;;;;;;5074379;28;20799;-68
2022/08/31 07:07:17;;;;;;;3.73;2.90;;;21.80;74.80;;;;;;5074014;28;20445;-69
2022/08/31 07:09:45;;;;;;;9.83;4.53;;;21.90;74.80;;;;;;5073078;28;20445;-69
2022/08/31 07:12:12;;;;;;;17.70;3.50;;;22.00;74.50;;;;;;5073090;28;20473;-68
2022/08/31 07:14:38;;;;;;;3.50;2.80;;;22.10;74.40;;;;;;5073807;28;20463;-69
2022/08/31 07:17:07;;;;;;;10.23;3.17;;;22.20;73.90;;;;;;5073159;28;20445;-69
2022/08/31 07:19:33;;;;;;;9.77;3.53;;;22.20;72.70;;;;;;5073344;28;20493;-69
2022/08/31 07:22:04;;;;;;;7.27;4.03;;;22.30;72.20;;;;;;5072648;28;21023;-68
2022/08/31 07:24:33;;;;;;;21.90;5.77;;;22.40;72.10;;;;;;5072814;28;20460;-68
2022/08/31 07:27:04;;;;;;;8.70;4.70;;;22.50;72.20;;;;;;5075663;28;20453;-69
2022/08/31 07:29:39;;;;;;;6.63;3.20;;;22.60;72.20;;;;;;5076987;28;20424;-69
2022/08/31 07:32:06;;;;;;;4.63;2.87;;;22.70;71.40;;;;;;5076873;28;20464;-69
2022/08/31 07:34:34;;;;;;;5.60;3.27;;;22.80;70.40;;;;;;5077108;28;20449;-69
2022/08/31 07:42:36;;;;;;;6.70;4.40;;;23.30;69.40;;;;;;5078916;28;20484;-69
2022/08/31 07:45:05;;;;;;;5.20;3.47;;;23.40;68.50;;;;;;5078068;28;20931;-69
2022/08/31 07:47:32;;;;;;;5.00;3.83;;;23.50;67.70;;;;;;5077200;28;20444;-69
2022/08/31 07:50:00;;;;;;;6.67;3.30;;;23.70;67.20;;;;;;5076906;28;20952;-69
2022/08/31 07:52:30;;;;;;;8.83;3.90;;;23.90;67.10;;;;;;5078375;28;20464;-69
2022/08/31 07:55:03;;;;;;;7.77;4.60;;;24.10;66.20;;;;;;5077837;28;20448;-69
2022/08/31 07:57:36;;;;;;;5.27;3.27;;;24.30;65.10;;;;;;5077195;28;20457;-69
2022/08/31 08:00:08;;;;;;;6.03;3.03;;;24.40;64.20;;;;;;5078619;28;20478;-69
2022/08/31 08:02:37;;;;;;;4.47;3.53;;;24.60;62.90;;;;;;5078525;28;20499;-68
2022/08/31 08:05:06;;;;;;;3.20;2.87;;;24.70;61.30;;;;;;5076429;28;20996;-69
2022/08/31 08:07:33;;;;;;;5.07;3.27;;;24.90;60.70;;;;;;5076336;28;20461;-69
2022/08/31 08:10:01;;;;;;;4.83;3.40;;;25.10;59.80;;;;;;5076141;28;20464;-69
2022/08/31 08:12:28;;;;;;;5.37;3.00;;;25.30;59.30;;;;;;5076210;28;20464;-70
2022/08/31 08:14:59;;;;;;;4.70;3.60;;;25.50;58.90;;;;;;5076013;28;20444;-69
2022/08/31 08:17:25;;;;;;;2.60;2.40;;;25.60;58.40;;;;;;5075899;28;20440;-69
2022/08/31 08:19:52;;;;;;;4.90;3.27;;;25.70;58.10;;;;;;5075834;28;20445;-69
2022/08/31 08:22:19;;;;;;;6.00;4.00;;;25.80;57.20;;;;;;5075615;28;20488;-69
2022/08/31 08:24:46;;;;;;;4.73;4.33;;;26.00;56.60;;;;;;5075380;28;20472;-69
2022/08/31 08:27:13;;;;;;;5.73;3.20;;;26.10;56.30;;;;;;5075598;28;20461;-70
2022/08/31 08:29:40;;;;;;;3.70;3.30;;;26.30;55.80;;;;;;5075527;28;20455;-69
2022/08/31 08:32:08;;;;;;;6.60;3.77;;;26.40;56.10;;;;;;5075362;28;20468;-69
2022/08/31 08:34:42;;;;;;;5.37;3.67;;;26.60;55.30;;;;;;5075546;28;20819;-69
2022/08/31 08:37:09;;;;;;;8.60;3.20;;;26.80;55.00;;;;;;5074962;28;20438;-69
2022/08/31 08:39:36;;;;;;;7.03;3.63;;;27.10;54.30;;;;;;5074775;28;20441;-69
2022/08/31 08:42:07;;;;;;;6.93;3.10;;;27.30;53.50;;;;;;5075350;28;20495;-69
2022/08/31 08:44:35;;;;;;;3.47;2.90;;;27.50;52.80;;;;;;5075545;28;20430;-69
2022/08/31 08:47:05;;;;;;;7.57;3.80;;;27.70;52.10;;;;;;5075357;28;20437;-69
2022/08/31 08:49:39;;;;;;;4.97;3.30;;;27.90;51.20;;;;;;5075452;28;20433;-69
2022/08/31 08:52:10;;;;;;;5.47;3.70;;;28.20;50.90;;;;;;5075364;28;20476;-69
2022/08/31 08:54:41;;;;;;;4.43;3.50;;;28.40;50.50;;;;;;5075225;28;20430;-69
2022/08/31 08:57:13;;;;;;;3.67;3.37;;;28.60;49.80;;;;;;5075281;28;20440;-70
2022/08/31 08:59:41;;;;;;;7.40;2.77;;;28.90;49.30;;;;;;5074885;28;20437;-70
2022/08/31 09:02:13;;;;;;;16.53;4.20;;;29.10;48.50;;;;;;5074965;28;20480;-69
2022/08/31 09:04:58;;;;;;;6.40;3.60;;;29.30;48.20;;;;;;5075078;28;20469;-70
2022/08/31 09:07:54;;;;;;;10.20;3.63;;;29.60;47.50;;;;;;5074967;28;20433;-69
2022/08/31 09:10:30;;;;;;;18.33;5.50;;;29.80;47.10;;;;;;5075536;28;20464;-69
2022/08/31 09:13:08;;;;;;;10.00;3.80;;;30.00;46.30;;;;;;5074839;28;20469;-69
2022/08/31 09:15:48;;;;;;;16.33;5.00;;;30.20;45.50;;;;;;5074770;28;20433;-69
2022/08/31 09:18:31;;;;;;;31.37;6.87;;;30.40;44.90;;;;;;5074693;28;20425;-69
2022/08/31 09:21:05;;;;;;;10.30;4.20;;;30.50;44.30;;;;;;5075422;28;20440;-69
2022/08/31 09:23:37;;;;;;;8.53;3.93;;;30.70;43.80;;;;;;5074392;28;20493;-70
2022/08/31 09:26:03;;;;;;;5.80;3.80;;;31.00;43.30;;;;;;5074549;28;20436;-69
2022/08/31 09:28:34;;;;;;;4.47;4.07;;;31.10;43.00;;;;;;5074210;28;20445;-69
2022/08/31 09:31:02;;;;;;;7.50;3.90;;;31.20;42.40;;;;;;5074468;28;20532;-69
2022/08/31 09:33:31;;;;;;;5.13;3.17;;;31.30;42.10;;;;;;5074619;28;20461;-69
2022/08/31 09:38:52;;;;;;;12.63;3.67;;;31.30;41.90;;;;;;5092029;27;20521;-71
2022/08/31 09:41:30;;;;;;;6.87;2.97;;;31.70;41.20;;;;;;5090927;28;20452;-71
2022/08/31 09:44:21;;;;;;;3.80;3.50;;;31.90;40.60;;;;;;5090967;28;20467;-71
2022/08/31 09:46:52;;;;;;;8.17;4.03;;;32.00;39.40;;;;;;5090910;28;20436;-71
2022/08/31 09:49:21;;;;;;;4.97;3.40;;;32.20;39.20;;;;;;5091009;28;20522;-71
2022/08/31 09:51:48;;;;;;;3.67;3.37;;;32.40;38.90;;;;;;5090698;28;20447;-71
2022/08/31 09:57:07;;;;;;;26.17;6.50;;;32.70;37.30;;;;;;5090447;28;20459;-71
2022/08/31 09:59:38;;;;;;;4.90;4.10;;;32.90;37.10;;;;;;5090358;28;20458;-71
2022/08/31 10:02:11;;;;;;;8.07;4.23;;;33.20;37.20;;;;;;5090422;28;21069;-71
2022/08/31 10:04:49;;;;;;;3.67;3.20;;;33.60;36.80;;;;;;5090612;28;20443;-70
2022/08/31 10:07:36;;;;;;;7.17;3.83;;;33.80;35.20;;;;;;5090332;28;20432;-70
2022/08/31 10:10:09;;;;;;;7.73;3.80;;;34.00;35.30;;;;;;5090368;28;20461;-70
2022/08/31 10:12:41;;;;;;;8.87;3.50;;;34.50;34.80;;;;;;5090532;28;20558;-70
2022/08/31 10:15:13;;;;;;;11.03;4.20;;;34.90;34.20;;;;;;5090509;28;20419;-70
2022/08/31 10:17:44;;;;;;;5.97;3.63;;;35.40;33.20;;;;;;5092124;28;20559;-71
2022/08/31 10:20:18;;;;;;;4.43;3.33;;;35.70;32.10;;;;;;5092281;28;20527;-71
2022/08/31 10:22:49;;;;;;;5.13;3.33;;;36.00;32.00;;;;;;5090624;28;20472;-71
2022/08/31 10:25:23;;;;;;;5.77;3.23;;;36.20;31.30;;;;;;5091138;28;20431;-71
2022/08/31 10:27:54;;;;;;;8.20;3.00;;;36.50;30.70;;;;;;5091050;28;20476;-71
2022/08/31 10:30:34;;;;;;;4.53;3.47;;;36.60;30.10;;;;;;5090226;28;20431;-71
2022/08/31 10:33:10;;;;;;;12.73;4.50;;;36.80;29.60;;;;;;5090217;28;20463;-71
2022/08/31 10:35:44;;;;;;;5.57;3.30;;;36.90;29.40;;;;;;5090056;28;20190;-71
2022/08/31 10:38:20;;;;;;;5.13;3.33;;;37.10;29.00;;;;;;5089676;28;20509;-71
2022/08/31 10:40:52;;;;;;;36.33;7.20;;;37.20;28.80;;;;;;5089989;28;20186;-71
2022/08/31 10:43:22;;;;;;;8.07;4.23;;;37.10;28.80;;;;;;5089798;28;20222;-72
2022/08/31 10:45:51;;;;;;;15.63;4.70;;;36.90;29.10;;;;;;5089655;28;20911;-72
2022/08/31 10:48:21;;;;;;;6.97;3.20;;;36.60;29.30;;;;;;5087006;28;20455;-71
2022/08/31 10:50:56;;;;;;;13.33;4.43;;;36.40;29.60;;;;;;5076289;28;20200;-71
2022/08/31 10:53:32;;;;;;;5.93;3.70;;;36.20;29.80;;;;;;5076027;28;20569;-71
2022/08/31 10:56:13;;;;;;;10.63;4.60;;;36.10;29.90;;;;;;5076362;28;20458;-71
2022/08/31 10:58:53;;;;;;;5.10;3.20;;;36.10;29.70;;;;;;5076103;28;20566;-71
2022/08/31 11:01:28;;;;;;;18.73;5.30;;;36.40;29.50;;;;;;5075817;28;20428;-71
2022/08/31 11:04:24;;;;;;;17.57;4.43;;;37.10;29.10;;;;;;5075758;28;20217;-70
2022/08/31 11:07:00;;;;;;;13.97;4.00;;;37.80;27.80;;;;;;5075986;28;20202;-70
2022/08/31 11:09:33;;;;;;;4.65;3.15;;;38.60;26.90;;;;;;5075690;28;20186;-69
2022/08/31 11:12:08;;;;;;;11.60;4.63;;;39.20;25.90;;;;;;5075954;28;20194;-69
2022/08/31 11:15:08;;;;;;;5.93;3.65;;;39.50;25.80;;;;;;5076033;28;20189;-69
2022/08/31 11:17:49;;;;;;;6.18;3.67;;;39.80;25.30;;;;;;5061368;28;20226;-69
2022/08/31 11:20:32;;;;;;;8.45;3.95;;;40.30;24.80;;;;;;5075776;28;20222;-69
2022/08/31 11:23:20;;;;;;;5.90;2.97;;;40.40;24.20;;;;;;5075612;28;20222;-69
2022/08/31 11:26:30;;;;;;;6.20;3.13;;;40.40;24.40;;;;;;5075820;28;20187;-69
2022/08/31 11:29:11;;;;;;;6.05;3.88;;;40.00;24.60;;;;;;5059776;28;20197;-70
2022/08/31 11:31:39;;;;;;;6.97;4.15;;;39.50;25.00;;;;;;5075673;28;20630;-70
2022/08/31 11:34:12;;;;;;;5.38;3.85;;;39.10;25.60;;;;;;5075534;28;20229;-70
2022/08/31 11:36:49;;;;;;;3.45;2.80;;;38.70;25.90;;;;;;5075568;28;20263;-70
2022/08/31 11:39:25;;;;;;;8.57;3.75;;;38.30;26.40;;;;;;5075098;28;20205;-70
2022/08/31 11:41:53;;;;;;;3.67;3.35;;;38.00;27.20;;;;;;5075428;28;20186;-69
2022/08/31 11:44:58;;;;;;;4.97;3.25;;;37.80;27.40;;;;;;5075406;28;20248;-66
2022/08/31 11:47:45;;;;;;;3.35;3.05;;;37.90;27.60;;;;;;5075323;28;20613;-66
2022/08/31 11:50:53;;;;;;;7.78;2.92;;;38.00;27.40;;;;;;5075610;28;20236;-67
2022/08/31 11:53:27;;;;;;;8.65;3.47;;;38.70;26.10;;;;;;5075268;28;20225;-67
2022/08/31 11:56:02;;;;;;;6.22;3.85;;;39.20;25.10;;;;;;5075288;28;20192;-67
2022/08/31 11:58:33;;;;;;;8.57;3.78;;;39.10;25.00;;;;;;5074940;28;20201;-67
2022/08/31 12:01:08;;;;;;;6.63;4.07;;;38.90;25.40;;;;;;5074329;28;20383;-67
2022/08/31 12:03:51;;;;;;;14.65;5.47;;;38.80;25.30;;;;;;5074839;28;20225;-66
2022/08/31 12:07:07;;;;;;;5.45;4.25;;;38.50;25.60;;;;;;5074941;28;20190;-67
2022/08/31 12:10:25;;;;;;;6.30;3.95;;;38.30;26.20;;;;;;5075641;28;20243;-65
2022/08/31 12:13:18;;;;;;;5.67;3.90;;;38.10;26.40;;;;;;5074690;28;20229;-66
2022/08/31 12:16:17;;;;;;;4.20;3.80;;;37.70;26.60;;;;;;5066240;28;20612;-66
2022/08/31 12:19:04;;;;;;;4.47;3.47;;;37.20;27.40;;;;;;5041197;28;20229;-67
2022/08/31 12:24:37;;;;;;;4.13;2.73;;;36.90;28.10;;;;;;5074813;28;20644;-66
2022/08/31 12:27:19;;;;;;;4.60;3.57;;;36.80;28.10;;;;;;5074491;28;20196;-66
2022/08/31 12:29:46;;;;;;;3.43;3.13;;;36.60;28.10;;;;;;5074707;28;20190;-66
2022/08/31 12:32:22;;;;;;;4.20;3.80;;;36.60;28.30;;;;;;5074536;28;20469;-65
2022/08/31 12:34:56;;;;;;;5.30;3.57;;;36.80;27.80;;;;;;5074928;28;20443;-65
2022/08/31 12:37:28;;;;;;;3.47;3.20;;;36.70;27.80;;;;;;5073364;28;20463;-65
2022/08/31 12:40:15;;;;;;;2.93;2.73;;;36.70;28.10;;;;;;5074429;28;20432;-65
2022/08/31 12:42:55;;;;;;;4.20;3.90;;;36.80;27.70;;;;;;5073101;28;20222;-67
2022/08/31 12:45:38;;;;;;;5.47;3.90;;;36.60;27.30;;;;;;5072923;28;20978;-66
2022/08/31 12:48:11;;;;;;;4.77;3.90;;;36.40;27.60;;;;;;5074128;28;20903;-67
2022/08/31 12:50:44;;;;;;;4.60;3.37;;;36.20;27.30;;;;;;5074115;28;20424;-66
2022/08/31 12:53:42;;;;;;;3.50;3.20;;;36.90;27.70;;;;;;5074098;28;20471;-66
2022/08/31 12:56:14;;;;;;;3.87;3.57;;;37.40;26.40;;;;;;5074086;28;20206;-66
2022/08/31 12:59:01;;;;;;;3.77;2.80;;;37.40;26.70;;;;;;5074520;28;20303;-67
2022/08/31 13:01:29;;;;;;;4.53;3.40;;;37.00;27.10;;;;;;5073644;28;20209;-66
2022/08/31 13:04:00;;;;;;;3.83;3.53;;;36.60;27.60;;;;;;5073978;28;20472;-66
2022/08/31 13:06:30;;;;;;;3.87;3.60;;;36.20;28.20;;;;;;5074265;28;20436;-67
2022/08/31 13:09:00;;;;;;;3.50;3.20;;;35.80;28.30;;;;;;5073629;28;20824;-67
2022/08/31 13:11:30;;;;;;;3.50;3.30;;;35.40;28.30;;;;;;5073770;28;20455;-66
2022/08/31 13:14:11;;;;;;;3.77;3.47;;;35.10;28.80;;;;;;5073471;28;20843;-66
2022/08/31 13:16:44;;;;;;;4.90;4.00;;;34.80;29.40;;;;;;5073913;28;20446;-66
2022/08/31 13:19:24;;;;;;;3.90;3.60;;;34.50;29.70;;;;;;5073636;28;20472;-66
2022/08/31 13:21:57;;;;;;;4.20;3.80;;;34.20;29.90;;;;;;5073824;28;20440;-65
2022/08/31 13:24:29;;;;;;;4.00;3.70;;;33.90;30.60;;;;;;5073899;28;20531;-65